sensor_id;sensor_type;location;lat;lon;timestamp;temperature;humidity
47616;DHT22;69146;52.266;7.000;2023-05-07T00:02:26;14.40;99.90
47616;DHT22;69146;52.266;7.000;2023-05-07T00:05:12;14.30;99.90
47616;DHT22;69146;52.266;7.000;2023-05-07T00:07:57;14.40;99.90
47616;DHT22;69146;52.266;7.000;2023-05-07T00:10:42;14.40;99.90
47616;DHT22;69146;52.266;7.000;2023-05-07T00:13:27;14.30;99.90
47616;DHT22;69146;52.266;7.000;2023-05-07T00:16:12;14.20;99.90
47616;DHT22;69146;52.266;7.000;2023-05-07T00:18:56;14.20;99.90
47616;DHT22;69146;52.266;7.000;2023-05-07T00:21:43;14.10;99.90
47616;DHT22;69146;52.266;7.000;2023-05-07T00:24:27;14.10;99.90
47616;DHT22;69146;52.266;7.000;2023-05-07T00:27:12;14.10;99.90
47616;DHT22;69146;52.266;7.000;2023-05-07T00:29:56;14.00;99.90
47616;DHT22;69146;52.266;7.000;2023-05-07T00:32:42;14.10;99.90
47616;DHT22;69146;52.266;7.000;2023-05-07T00:35:30;14.10;99.90
47616;DHT22;69146;52.266;7.000;2023-05-07T00:38:16;14.10;99.90
47616;DHT22;69146;52.266;7.000;2023-05-07T00:41:00;14.10;99.90
47616;DHT22;69146;52.266;7.000;2023-05-07T00:43:46;14.00;99.90
47616;DHT22;69146;52.266;7.000;2023-05-07T00:46:32;14.00;99.90
47616;DHT22;69146;52.266;7.000;2023-05-07T00:49:17;14.00;99.90
47616;DHT22;69146;52.266;7.000;2023-05-07T00:52:03;13.90;99.90
47616;DHT22;69146;52.266;7.000;2023-05-07T00:54:49;13.90;99.90
47616;DHT22;69146;52.266;7.000;2023-05-07T00:57:36;13.90;99.90
47616;DHT22;69146;52.266;7.000;2023-05-07T01:00:21;13.90;99.90
47616;DHT22;69146;52.266;7.000;2023-05-07T01:03:06;13.80;99.90
47616;DHT22;69146;52.266;7.000;2023-05-07T01:05:52;13.80;99.90
47616;DHT22;69146;52.266;7.000;2023-05-07T01:08:37;13.80;99.90
47616;DHT22;69146;52.266;7.000;2023-05-07T01:11:28;13.70;99.90
47616;DHT22;69146;52.266;7.000;2023-05-07T01:14:13;13.80;99.90
47616;DHT22;69146;52.266;7.000;2023-05-07T01:16:58;13.70;99.90
47616;DHT22;69146;52.266;7.000;2023-05-07T01:19:43;13.60;99.90
47616;DHT22;69146;52.266;7.000;2023-05-07T01:22:30;13.60;99.90
47616;DHT22;69146;52.266;7.000;2023-05-07T01:25:16;13.50;99.90
47616;DHT22;69146;52.266;7.000;2023-05-07T01:28:01;13.50;99.90
47616;DHT22;69146;52.266;7.000;2023-05-07T01:30:49;13.40;99.90
47616;DHT22;69146;52.266;7.000;2023-05-07T01:33:36;13.30;99.90
47616;DHT22;69146;52.266;7.000;2023-05-07T01:36:22;13.30;99.90
47616;DHT22;69146;52.266;7.000;2023-05-07T01:39:12;13.20;99.90
47616;DHT22;69146;52.266;7.000;2023-05-07T01:41:59;13.20;99.90
47616;DHT22;69146;52.266;7.000;2023-05-07T01:44:44;13.20;99.90
47616;DHT22;69146;52.266;7.000;2023-05-07T01:47:29;13.20;99.90
47616;DHT22;69146;52.266;7.000;2023-05-07T01:50:16;13.10;99.90
47616;DHT22;69146;52.266;7.000;2023-05-07T01:53:01;13.10;99.90
47616;DHT22;69146;52.266;7.000;2023-05-07T01:55:48;13.10;99.90
47616;DHT22;69146;52.266;7.000;2023-05-07T01:58:33;13.10;99.90
47616;DHT22;69146;52.266;7.000;2023-05-07T02:01:17;13.10;99.90
47616;DHT22;69146;52.266;7.000;2023-05-07T02:04:03;13.10;99.90
47616;DHT22;69146;52.266;7.000;2023-05-07T02:06:47;13.10;99.90
47616;DHT22;69146;52.266;7.000;2023-05-07T02:09:32;13.00;99.90
47616;DHT22;69146;52.266;7.000;2023-05-07T02:12:18;13.00;99.90
47616;DHT22;69146;52.266;7.000;2023-05-07T02:15:03;13.00;99.90
47616;DHT22;69146;52.266;7.000;2023-05-07T02:17:58;13.00;99.90
47616;DHT22;69146;52.266;7.000;2023-05-07T02:20:43;13.00;99.90
47616;DHT22;69146;52.266;7.000;2023-05-07T02:23:28;12.90;99.90
47616;DHT22;69146;52.266;7.000;2023-05-07T02:26:12;12.90;99.90
47616;DHT22;69146;52.266;7.000;2023-05-07T02:28:58;12.90;99.90
47616;DHT22;69146;52.266;7.000;2023-05-07T02:31:43;12.90;99.90
47616;DHT22;69146;52.266;7.000;2023-05-07T02:34:28;12.80;99.90
47616;DHT22;69146;52.266;7.000;2023-05-07T02:37:13;12.80;99.90
47616;DHT22;69146;52.266;7.000;2023-05-07T02:39:58;12.80;99.90
47616;DHT22;69146;52.266;7.000;2023-05-07T02:42:42;12.80;99.90
47616;DHT22;69146;52.266;7.000;2023-05-07T02:45:28;12.80;99.90
47616;DHT22;69146;52.266;7.000;2023-05-07T02:48:13;12.80;99.90
47616;DHT22;69146;52.266;7.000;2023-05-07T02:50:59;12.70;99.90
47616;DHT22;69146;52.266;7.000;2023-05-07T02:53:44;12.70;99.90
47616;DHT22;69146;52.266;7.000;2023-05-07T02:56:29;12.70;99.90
47616;DHT22;69146;52.266;7.000;2023-05-07T02:59:14;12.70;99.90
47616;DHT22;69146;52.266;7.000;2023-05-07T03:02:00;12.60;99.90
47616;DHT22;69146;52.266;7.000;2023-05-07T03:04:45;12.70;99.90
47616;DHT22;69146;52.266;7.000;2023-05-07T03:07:29;12.60;99.90
47616;DHT22;69146;52.266;7.000;2023-05-07T03:10:14;12.50;99.90
47616;DHT22;69146;52.266;7.000;2023-05-07T03:13:00;12.60;99.90
47616;DHT22;69146;52.266;7.000;2023-05-07T03:15:45;12.50;99.90
47616;DHT22;69146;52.266;7.000;2023-05-07T03:18:31;12.50;99.90
47616;DHT22;69146;52.266;7.000;2023-05-07T03:21:16;12.40;99.90
47616;DHT22;69146;52.266;7.000;2023-05-07T03:24:01;12.40;99.90
47616;DHT22;69146;52.266;7.000;2023-05-07T03:26:46;12.30;99.90
47616;DHT22;69146;52.266;7.000;2023-05-07T03:29:30;12.30;99.90
47616;DHT22;69146;52.266;7.000;2023-05-07T03:32:15;12.30;99.90
47616;DHT22;69146;52.266;7.000;2023-05-07T03:35:01;12.20;99.90
47616;DHT22;69146;52.266;7.000;2023-05-07T03:37:47;12.20;99.90
47616;DHT22;69146;52.266;7.000;2023-05-07T03:40:31;12.20;99.90
47616;DHT22;69146;52.266;7.000;2023-05-07T03:43:16;12.20;99.90
47616;DHT22;69146;52.266;7.000;2023-05-07T03:46:01;12.20;99.90
47616;DHT22;69146;52.266;7.000;2023-05-07T03:48:45;12.10;99.90
47616;DHT22;69146;52.266;7.000;2023-05-07T03:51:31;12.10;99.90
47616;DHT22;69146;52.266;7.000;2023-05-07T03:54:16;12.20;99.90
47616;DHT22;69146;52.266;7.000;2023-05-07T03:57:01;12.10;99.90
47616;DHT22;69146;52.266;7.000;2023-05-07T03:59:46;12.20;99.90
47616;DHT22;69146;52.266;7.000;2023-05-07T04:02:31;12.10;99.90
47616;DHT22;69146;52.266;7.000;2023-05-07T04:05:15;12.10;99.90
47616;DHT22;69146;52.266;7.000;2023-05-07T04:08:03;12.10;99.90
47616;DHT22;69146;52.266;7.000;2023-05-07T04:10:47;12.10;99.90
47616;DHT22;69146;52.266;7.000;2023-05-07T04:13:32;12.00;99.90
47616;DHT22;69146;52.266;7.000;2023-05-07T04:16:17;12.00;99.90
47616;DHT22;69146;52.266;7.000;2023-05-07T04:19:02;12.00;99.90
47616;DHT22;69146;52.266;7.000;2023-05-07T04:21:47;12.00;99.90
47616;DHT22;69146;52.266;7.000;2023-05-07T04:24:32;11.90;99.90
47616;DHT22;69146;52.266;7.000;2023-05-07T04:27:17;11.90;99.90
47616;DHT22;69146;52.266;7.000;2023-05-07T04:30:02;11.90;99.90
47616;DHT22;69146;52.266;7.000;2023-05-07T04:32:47;12.00;99.90
47616;DHT22;69146;52.266;7.000;2023-05-07T04:35:32;12.00;99.90
47616;DHT22;69146;52.266;7.000;2023-05-07T04:38:17;12.00;99.90
47616;DHT22;69146;52.266;7.000;2023-05-07T04:41:05;12.00;99.90
47616;DHT22;69146;52.266;7.000;2023-05-07T04:43:50;12.00;99.90
47616;DHT22;69146;52.266;7.000;2023-05-07T04:46:36;12.00;99.90
47616;DHT22;69146;52.266;7.000;2023-05-07T04:49:21;12.00;99.90
47616;DHT22;69146;52.266;7.000;2023-05-07T04:52:07;12.10;99.90
47616;DHT22;69146;52.266;7.000;2023-05-07T04:54:52;12.00;99.90
47616;DHT22;69146;52.266;7.000;2023-05-07T04:57:39;12.10;99.90
47616;DHT22;69146;52.266;7.000;2023-05-07T05:00:25;12.10;99.90
47616;DHT22;69146;52.266;7.000;2023-05-07T05:03:10;12.10;99.90
47616;DHT22;69146;52.266;7.000;2023-05-07T05:05:55;12.10;99.90
47616;DHT22;69146;52.266;7.000;2023-05-07T05:08:41;12.10;99.90
47616;DHT22;69146;52.266;7.000;2023-05-07T05:11:26;12.10;99.90
47616;DHT22;69146;52.266;7.000;2023-05-07T05:14:12;12.00;99.90
47616;DHT22;69146;52.266;7.000;2023-05-07T05:16:57;12.00;99.90
47616;DHT22;69146;52.266;7.000;2023-05-07T05:19:42;11.90;99.90
47616;DHT22;69146;52.266;7.000;2023-05-07T05:22:27;12.00;99.90
47616;DHT22;69146;52.266;7.000;2023-05-07T05:25:14;12.00;99.90
47616;DHT22;69146;52.266;7.000;2023-05-07T05:27:58;12.10;99.90
47616;DHT22;69146;52.266;7.000;2023-05-07T05:30:45;12.10;99.90
47616;DHT22;69146;52.266;7.000;2023-05-07T05:33:32;12.20;99.90
47616;DHT22;69146;52.266;7.000;2023-05-07T05:36:17;12.20;99.90
47616;DHT22;69146;52.266;7.000;2023-05-07T05:39:04;12.20;99.90
47616;DHT22;69146;52.266;7.000;2023-05-07T05:41:49;12.20;99.90
47616;DHT22;69146;52.266;7.000;2023-05-07T05:44:33;12.30;99.90
47616;DHT22;69146;52.266;7.000;2023-05-07T05:47:19;12.30;99.90
47616;DHT22;69146;52.266;7.000;2023-05-07T05:50:05;12.30;99.90
47616;DHT22;69146;52.266;7.000;2023-05-07T05:52:50;12.40;99.90
47616;DHT22;69146;52.266;7.000;2023-05-07T05:55:35;12.40;99.90
47616;DHT22;69146;52.266;7.000;2023-05-07T05:58:20;12.40;99.90
47616;DHT22;69146;52.266;7.000;2023-05-07T06:01:05;12.40;99.90
47616;DHT22;69146;52.266;7.000;2023-05-07T06:03:51;12.50;99.90
47616;DHT22;69146;52.266;7.000;2023-05-07T06:06:36;12.60;99.90
47616;DHT22;69146;52.266;7.000;2023-05-07T06:09:21;12.70;99.90
47616;DHT22;69146;52.266;7.000;2023-05-07T06:12:06;12.70;99.90
47616;DHT22;69146;52.266;7.000;2023-05-07T06:14:51;12.80;99.90
47616;DHT22;69146;52.266;7.000;2023-05-07T06:17:38;12.90;99.90
47616;DHT22;69146;52.266;7.000;2023-05-07T06:20:24;12.90;99.90
47616;DHT22;69146;52.266;7.000;2023-05-07T06:23:09;12.80;99.90
47616;DHT22;69146;52.266;7.000;2023-05-07T06:25:54;12.90;99.90
47616;DHT22;69146;52.266;7.000;2023-05-07T06:28:38;12.90;99.90
47616;DHT22;69146;52.266;7.000;2023-05-07T06:31:23;12.90;99.90
47616;DHT22;69146;52.266;7.000;2023-05-07T06:34:08;12.90;99.90
47616;DHT22;69146;52.266;7.000;2023-05-07T06:36:54;13.00;99.90
47616;DHT22;69146;52.266;7.000;2023-05-07T06:39:38;13.20;99.90
47616;DHT22;69146;52.266;7.000;2023-05-07T06:42:23;13.10;99.90
47616;DHT22;69146;52.266;7.000;2023-05-07T06:45:09;13.20;99.90
47616;DHT22;69146;52.266;7.000;2023-05-07T06:47:54;13.30;99.90
47616;DHT22;69146;52.266;7.000;2023-05-07T06:50:38;13.30;99.90
47616;DHT22;69146;52.266;7.000;2023-05-07T06:53:24;13.30;99.90
47616;DHT22;69146;52.266;7.000;2023-05-07T06:56:10;13.50;99.90
47616;DHT22;69146;52.266;7.000;2023-05-07T06:58:55;13.50;99.90
47616;DHT22;69146;52.266;7.000;2023-05-07T07:01:40;13.40;99.90
47616;DHT22;69146;52.266;7.000;2023-05-07T07:04:25;13.50;99.90
47616;DHT22;69146;52.266;7.000;2023-05-07T07:07:10;13.50;99.90
47616;DHT22;69146;52.266;7.000;2023-05-07T07:09:58;13.70;99.90
47616;DHT22;69146;52.266;7.000;2023-05-07T07:12:43;13.70;99.90
47616;DHT22;69146;52.266;7.000;2023-05-07T07:15:28;13.70;99.90
47616;DHT22;69146;52.266;7.000;2023-05-07T07:18:13;13.60;99.90
47616;DHT22;69146;52.266;7.000;2023-05-07T07:20:58;13.60;99.90
47616;DHT22;69146;52.266;7.000;2023-05-07T07:23:43;13.70;99.90
47616;DHT22;69146;52.266;7.000;2023-05-07T07:26:29;13.90;99.90
47616;DHT22;69146;52.266;7.000;2023-05-07T07:29:14;13.90;99.90
47616;DHT22;69146;52.266;7.000;2023-05-07T07:31:59;14.10;99.90
47616;DHT22;69146;52.266;7.000;2023-05-07T07:34:44;14.10;99.90
47616;DHT22;69146;52.266;7.000;2023-05-07T07:37:29;14.20;99.90
47616;DHT22;69146;52.266;7.000;2023-05-07T07:40:14;14.30;99.90
47616;DHT22;69146;52.266;7.000;2023-05-07T07:43:00;14.40;99.90
47616;DHT22;69146;52.266;7.000;2023-05-07T07:45:47;14.50;99.90
47616;DHT22;69146;52.266;7.000;2023-05-07T07:48:36;14.50;99.90
47616;DHT22;69146;52.266;7.000;2023-05-07T07:51:21;14.50;99.90
47616;DHT22;69146;52.266;7.000;2023-05-07T07:54:24;14.50;99.90
47616;DHT22;69146;52.266;7.000;2023-05-07T07:57:09;14.50;99.90
47616;DHT22;69146;52.266;7.000;2023-05-07T07:59:55;14.60;99.90
47616;DHT22;69146;52.266;7.000;2023-05-07T08:02:39;14.60;99.90
47616;DHT22;69146;52.266;7.000;2023-05-07T08:05:24;14.70;99.90
47616;DHT22;69146;52.266;7.000;2023-05-07T08:08:09;14.90;99.90
47616;DHT22;69146;52.266;7.000;2023-05-07T08:10:54;14.90;99.90
47616;DHT22;69146;52.266;7.000;2023-05-07T08:13:39;14.90;99.90
47616;DHT22;69146;52.266;7.000;2023-05-07T08:16:25;15.00;99.90
47616;DHT22;69146;52.266;7.000;2023-05-07T08:19:13;15.10;99.90
47616;DHT22;69146;52.266;7.000;2023-05-07T08:21:57;15.10;99.90
47616;DHT22;69146;52.266;7.000;2023-05-07T08:24:42;15.30;99.90
47616;DHT22;69146;52.266;7.000;2023-05-07T08:27:27;15.40;99.90
47616;DHT22;69146;52.266;7.000;2023-05-07T08:30:13;15.50;99.90
47616;DHT22;69146;52.266;7.000;2023-05-07T08:33:00;15.50;99.90
47616;DHT22;69146;52.266;7.000;2023-05-07T08:35:45;15.60;99.90
47616;DHT22;69146;52.266;7.000;2023-05-07T08:38:29;15.70;99.90
47616;DHT22;69146;52.266;7.000;2023-05-07T08:41:15;15.80;99.90
47616;DHT22;69146;52.266;7.000;2023-05-07T08:44:03;15.90;99.90
47616;DHT22;69146;52.266;7.000;2023-05-07T08:46:50;15.90;99.90
47616;DHT22;69146;52.266;7.000;2023-05-07T08:49:39;16.00;99.90
47616;DHT22;69146;52.266;7.000;2023-05-07T08:52:25;16.00;99.90
47616;DHT22;69146;52.266;7.000;2023-05-07T08:55:13;16.10;99.90
47616;DHT22;69146;52.266;7.000;2023-05-07T08:57:59;16.30;99.90
47616;DHT22;69146;52.266;7.000;2023-05-07T09:00:44;16.40;99.90
47616;DHT22;69146;52.266;7.000;2023-05-07T09:03:32;16.50;99.90
47616;DHT22;69146;52.266;7.000;2023-05-07T09:06:18;16.70;99.90
47616;DHT22;69146;52.266;7.000;2023-05-07T09:09:03;17.00;99.90
47616;DHT22;69146;52.266;7.000;2023-05-07T09:11:57;17.00;99.90
47616;DHT22;69146;52.266;7.000;2023-05-07T09:14:44;17.10;99.90
47616;DHT22;69146;52.266;7.000;2023-05-07T09:17:30;17.20;99.90
47616;DHT22;69146;52.266;7.000;2023-05-07T09:20:16;17.40;99.90
47616;DHT22;69146;52.266;7.000;2023-05-07T09:23:06;17.30;99.90
47616;DHT22;69146;52.266;7.000;2023-05-07T09:26:00;17.40;99.90
47616;DHT22;69146;52.266;7.000;2023-05-07T09:28:55;17.60;99.90
47616;DHT22;69146;52.266;7.000;2023-05-07T09:31:40;17.60;99.90
47616;DHT22;69146;52.266;7.000;2023-05-07T09:34:25;17.50;99.90
47616;DHT22;69146;52.266;7.000;2023-05-07T09:37:12;17.40;99.90
47616;DHT22;69146;52.266;7.000;2023-05-07T09:39:59;17.60;99.90
47616;DHT22;69146;52.266;7.000;2023-05-07T09:42:44;17.50;99.90
47616;DHT22;69146;52.266;7.000;2023-05-07T09:45:30;17.60;99.90
47616;DHT22;69146;52.266;7.000;2023-05-07T09:48:17;17.70;99.90
47616;DHT22;69146;52.266;7.000;2023-05-07T09:51:09;17.70;99.90
47616;DHT22;69146;52.266;7.000;2023-05-07T09:53:56;17.50;99.90
47616;DHT22;69146;52.266;7.000;2023-05-07T09:56:43;17.60;99.90
47616;DHT22;69146;52.266;7.000;2023-05-07T09:59:30;17.70;99.90
47616;DHT22;69146;52.266;7.000;2023-05-07T10:02:15;17.70;99.90
47616;DHT22;69146;52.266;7.000;2023-05-07T10:05:01;17.80;99.90
47616;DHT22;69146;52.266;7.000;2023-05-07T10:07:47;17.90;99.90
47616;DHT22;69146;52.266;7.000;2023-05-07T10:10:33;18.30;99.90
47616;DHT22;69146;52.266;7.000;2023-05-07T10:13:20;18.50;99.90
47616;DHT22;69146;52.266;7.000;2023-05-07T10:16:06;18.40;99.90
47616;DHT22;69146;52.266;7.000;2023-05-07T10:18:51;18.70;99.90
47616;DHT22;69146;52.266;7.000;2023-05-07T10:21:37;18.80;99.90
47616;DHT22;69146;52.266;7.000;2023-05-07T10:24:26;19.10;99.90
47616;DHT22;69146;52.266;7.000;2023-05-07T10:27:14;19.30;99.90
47616;DHT22;69146;52.266;7.000;2023-05-07T10:30:10;19.30;99.90
47616;DHT22;69146;52.266;7.000;2023-05-07T10:32:59;19.10;99.90
47616;DHT22;69146;52.266;7.000;2023-05-07T10:35:50;19.20;99.90
47616;DHT22;69146;52.266;7.000;2023-05-07T10:38:35;19.10;99.90
47616;DHT22;69146;52.266;7.000;2023-05-07T10:41:20;19.00;99.90
47616;DHT22;69146;52.266;7.000;2023-05-07T10:44:06;18.80;99.90
47616;DHT22;69146;52.266;7.000;2023-05-07T10:47:06;19.00;99.90
47616;DHT22;69146;52.266;7.000;2023-05-07T10:50:20;19.30;99.90
47616;DHT22;69146;52.266;7.000;2023-05-07T10:53:21;19.40;99.90
47616;DHT22;69146;52.266;7.000;2023-05-07T10:56:24;19.40;99.90
47616;DHT22;69146;52.266;7.000;2023-05-07T10:59:34;19.40;99.90
47616;DHT22;69146;52.266;7.000;2023-05-07T11:03:06;19.60;99.90
47616;DHT22;69146;52.266;7.000;2023-05-07T11:06:09;20.00;99.90
47616;DHT22;69146;52.266;7.000;2023-05-07T11:08:55;20.20;99.90
47616;DHT22;69146;52.266;7.000;2023-05-07T11:11:47;20.60;99.90
47616;DHT22;69146;52.266;7.000;2023-05-07T11:14:44;20.70;99.90
47616;DHT22;69146;52.266;7.000;2023-05-07T11:17:31;21.00;99.90
47616;DHT22;69146;52.266;7.000;2023-05-07T11:20:19;21.00;97.60
47616;DHT22;69146;52.266;7.000;2023-05-07T11:23:04;21.10;99.20
47616;DHT22;69146;52.266;7.000;2023-05-07T11:25:49;21.60;98.40
47616;DHT22;69146;52.266;7.000;2023-05-07T11:28:37;21.70;97.80
47616;DHT22;69146;52.266;7.000;2023-05-07T11:31:24;21.70;97.40
47616;DHT22;69146;52.266;7.000;2023-05-07T11:34:11;21.70;98.10
47616;DHT22;69146;52.266;7.000;2023-05-07T11:36:58;21.70;97.80
47616;DHT22;69146;52.266;7.000;2023-05-07T11:39:44;21.60;97.00
47616;DHT22;69146;52.266;7.000;2023-05-07T11:42:29;21.60;97.20
47616;DHT22;69146;52.266;7.000;2023-05-07T11:45:23;21.60;97.70
47616;DHT22;69146;52.266;7.000;2023-05-07T11:48:12;21.70;97.10
47616;DHT22;69146;52.266;7.000;2023-05-07T11:51:02;21.80;96.90
47616;DHT22;69146;52.266;7.000;2023-05-07T11:53:48;21.70;97.10
47616;DHT22;69146;52.266;7.000;2023-05-07T11:56:37;21.90;96.70
47616;DHT22;69146;52.266;7.000;2023-05-07T11:59:22;21.90;97.10
47616;DHT22;69146;52.266;7.000;2023-05-07T12:02:06;21.80;97.10
47616;DHT22;69146;52.266;7.000;2023-05-07T12:04:51;21.70;96.50
47616;DHT22;69146;52.266;7.000;2023-05-07T12:07:38;21.80;97.00
47616;DHT22;69146;52.266;7.000;2023-05-07T12:10:22;21.80;96.50
47616;DHT22;69146;52.266;7.000;2023-05-07T12:13:14;21.70;96.20
47616;DHT22;69146;52.266;7.000;2023-05-07T12:16:00;21.50;96.00
47616;DHT22;69146;52.266;7.000;2023-05-07T12:18:50;21.40;96.30
47616;DHT22;69146;52.266;7.000;2023-05-07T12:21:37;21.50;96.90
47616;DHT22;69146;52.266;7.000;2023-05-07T12:24:23;21.70;96.50
47616;DHT22;69146;52.266;7.000;2023-05-07T12:27:09;21.70;96.10
47616;DHT22;69146;52.266;7.000;2023-05-07T12:29:54;21.70;96.00
47616;DHT22;69146;52.266;7.000;2023-05-07T12:32:39;21.60;96.30
47616;DHT22;69146;52.266;7.000;2023-05-07T12:35:28;21.70;95.70
47616;DHT22;69146;52.266;7.000;2023-05-07T12:38:15;21.90;95.40
47616;DHT22;69146;52.266;7.000;2023-05-07T12:41:02;21.90;95.70
47616;DHT22;69146;52.266;7.000;2023-05-07T12:43:47;22.10;96.20
47616;DHT22;69146;52.266;7.000;2023-05-07T12:46:31;22.10;95.80
47616;DHT22;69146;52.266;7.000;2023-05-07T12:49:16;22.10;96.40
47616;DHT22;69146;52.266;7.000;2023-05-07T12:52:02;22.10;95.00
47616;DHT22;69146;52.266;7.000;2023-05-07T12:54:48;22.30;95.50
47616;DHT22;69146;52.266;7.000;2023-05-07T12:57:39;22.50;95.20
47616;DHT22;69146;52.266;7.000;2023-05-07T13:00:35;22.90;95.40
47616;DHT22;69146;52.266;7.000;2023-05-07T13:03:25;23.20;94.80
47616;DHT22;69146;52.266;7.000;2023-05-07T13:06:10;23.70;93.10
47616;DHT22;69146;52.266;7.000;2023-05-07T13:08:59;23.90;93.50
47616;DHT22;69146;52.266;7.000;2023-05-07T13:11:44;24.20;92.80
47616;DHT22;69146;52.266;7.000;2023-05-07T13:14:31;24.10;92.70
47616;DHT22;69146;52.266;7.000;2023-05-07T13:17:16;23.70;92.80
47616;DHT22;69146;52.266;7.000;2023-05-07T13:20:00;24.30;93.20
47616;DHT22;69146;52.266;7.000;2023-05-07T13:22:45;24.90;91.90
47616;DHT22;69146;52.266;7.000;2023-05-07T13:25:30;25.20;91.70
47616;DHT22;69146;52.266;7.000;2023-05-07T13:28:15;25.40;91.20
47616;DHT22;69146;52.266;7.000;2023-05-07T13:31:01;25.40;91.40
47616;DHT22;69146;52.266;7.000;2023-05-07T13:33:47;25.40;91.40
47616;DHT22;69146;52.266;7.000;2023-05-07T13:36:36;25.30;90.80
47616;DHT22;69146;52.266;7.000;2023-05-07T13:39:39;24.70;91.20
47616;DHT22;69146;52.266;7.000;2023-05-07T13:42:28;24.10;92.30
47616;DHT22;69146;52.266;7.000;2023-05-07T13:45:13;23.90;92.70
47616;DHT22;69146;52.266;7.000;2023-05-07T13:48:00;23.80;91.80
47616;DHT22;69146;52.266;7.000;2023-05-07T13:50:45;23.30;91.90
47616;DHT22;69146;52.266;7.000;2023-05-07T13:53:29;23.00;92.90
47616;DHT22;69146;52.266;7.000;2023-05-07T13:56:14;23.10;92.90
47616;DHT22;69146;52.266;7.000;2023-05-07T13:58:59;23.20;92.50
47616;DHT22;69146;52.266;7.000;2023-05-07T14:01:44;23.20;92.60
47616;DHT22;69146;52.266;7.000;2023-05-07T14:04:30;23.00;92.50
47616;DHT22;69146;52.266;7.000;2023-05-07T14:07:15;22.80;92.80
47616;DHT22;69146;52.266;7.000;2023-05-07T14:10:00;22.60;93.50
47616;DHT22;69146;52.266;7.000;2023-05-07T14:12:44;22.60;93.50
47616;DHT22;69146;52.266;7.000;2023-05-07T14:15:30;22.80;93.00
47616;DHT22;69146;52.266;7.000;2023-05-07T14:18:16;22.80;93.30
47616;DHT22;69146;52.266;7.000;2023-05-07T14:21:03;23.20;93.10
47616;DHT22;69146;52.266;7.000;2023-05-07T14:23:48;23.60;93.00
47616;DHT22;69146;52.266;7.000;2023-05-07T14:26:33;23.70;92.50
47616;DHT22;69146;52.266;7.000;2023-05-07T14:29:20;23.50;92.10
47616;DHT22;69146;52.266;7.000;2023-05-07T14:32:05;23.10;92.90
47616;DHT22;69146;52.266;7.000;2023-05-07T14:34:50;23.00;93.20
47616;DHT22;69146;52.266;7.000;2023-05-07T14:37:36;23.10;93.20
47616;DHT22;69146;52.266;7.000;2023-05-07T14:40:21;22.80;93.10
47616;DHT22;69146;52.266;7.000;2023-05-07T14:43:06;22.80;92.90
47616;DHT22;69146;52.266;7.000;2023-05-07T14:45:50;22.60;93.40
47616;DHT22;69146;52.266;7.000;2023-05-07T14:48:35;22.40;93.30
47616;DHT22;69146;52.266;7.000;2023-05-07T14:51:20;22.30;93.40
47616;DHT22;69146;52.266;7.000;2023-05-07T14:54:06;22.40;93.20
47616;DHT22;69146;52.266;7.000;2023-05-07T14:56:52;22.40;93.30
47616;DHT22;69146;52.266;7.000;2023-05-07T14:59:37;22.20;93.40
47616;DHT22;69146;52.266;7.000;2023-05-07T15:02:22;22.40;93.70
47616;DHT22;69146;52.266;7.000;2023-05-07T15:05:07;22.50;93.40
47616;DHT22;69146;52.266;7.000;2023-05-07T15:07:52;22.40;93.30
47616;DHT22;69146;52.266;7.000;2023-05-07T15:10:38;22.30;93.60
47616;DHT22;69146;52.266;7.000;2023-05-07T15:13:26;22.30;93.80
47616;DHT22;69146;52.266;7.000;2023-05-07T15:16:11;22.10;93.70
47616;DHT22;69146;52.266;7.000;2023-05-07T15:18:58;22.00;94.00
47616;DHT22;69146;52.266;7.000;2023-05-07T15:21:43;21.90;94.00
47616;DHT22;69146;52.266;7.000;2023-05-07T15:24:28;22.00;94.20
47616;DHT22;69146;52.266;7.000;2023-05-07T15:27:14;22.00;94.30
47616;DHT22;69146;52.266;7.000;2023-05-07T15:29:59;22.00;94.20
47616;DHT22;69146;52.266;7.000;2023-05-07T15:32:43;21.80;94.30
47616;DHT22;69146;52.266;7.000;2023-05-07T15:35:28;21.70;94.40
47616;DHT22;69146;52.266;7.000;2023-05-07T15:38:13;21.70;95.00
47616;DHT22;69146;52.266;7.000;2023-05-07T15:40:58;21.60;94.80
47616;DHT22;69146;52.266;7.000;2023-05-07T15:43:47;21.70;94.90
47616;DHT22;69146;52.266;7.000;2023-05-07T15:46:32;21.80;94.60
47616;DHT22;69146;52.266;7.000;2023-05-07T15:49:17;21.80;94.70
47616;DHT22;69146;52.266;7.000;2023-05-07T15:52:01;22.00;94.80
47616;DHT22;69146;52.266;7.000;2023-05-07T15:54:46;22.10;94.50
47616;DHT22;69146;52.266;7.000;2023-05-07T15:57:31;22.10;94.30
47616;DHT22;69146;52.266;7.000;2023-05-07T16:00:19;22.00;94.30
47616;DHT22;69146;52.266;7.000;2023-05-07T16:03:04;21.90;94.50
47616;DHT22;69146;52.266;7.000;2023-05-07T16:05:48;21.80;94.50
47616;DHT22;69146;52.266;7.000;2023-05-07T16:08:33;21.70;94.80
47616;DHT22;69146;52.266;7.000;2023-05-07T16:11:18;21.60;94.60
47616;DHT22;69146;52.266;7.000;2023-05-07T16:14:03;21.40;94.90
47616;DHT22;69146;52.266;7.000;2023-05-07T16:16:50;21.30;95.10
47616;DHT22;69146;52.266;7.000;2023-05-07T16:19:34;21.20;95.50
47616;DHT22;69146;52.266;7.000;2023-05-07T16:22:19;21.20;95.20
47616;DHT22;69146;52.266;7.000;2023-05-07T16:25:06;21.00;95.10
47616;DHT22;69146;52.266;7.000;2023-05-07T16:27:52;20.90;95.50
47616;DHT22;69146;52.266;7.000;2023-05-07T16:30:37;20.70;95.60
47616;DHT22;69146;52.266;7.000;2023-05-07T16:33:23;20.60;96.00
47616;DHT22;69146;52.266;7.000;2023-05-07T16:36:07;20.50;96.10
47616;DHT22;69146;52.266;7.000;2023-05-07T16:38:52;20.40;96.20
47616;DHT22;69146;52.266;7.000;2023-05-07T16:41:37;20.40;96.00
47616;DHT22;69146;52.266;7.000;2023-05-07T16:44:22;20.40;96.10
47616;DHT22;69146;52.266;7.000;2023-05-07T16:47:08;20.40;96.20
47616;DHT22;69146;52.266;7.000;2023-05-07T16:49:54;20.40;96.10
47616;DHT22;69146;52.266;7.000;2023-05-07T16:52:39;20.30;96.10
47616;DHT22;69146;52.266;7.000;2023-05-07T16:55:24;20.30;96.30
47616;DHT22;69146;52.266;7.000;2023-05-07T16:58:10;20.20;96.70
47616;DHT22;69146;52.266;7.000;2023-05-07T17:00:56;20.30;96.60
47616;DHT22;69146;52.266;7.000;2023-05-07T17:03:42;20.20;96.70
47616;DHT22;69146;52.266;7.000;2023-05-07T17:06:31;20.20;96.60
47616;DHT22;69146;52.266;7.000;2023-05-07T17:09:17;20.20;96.20
47616;DHT22;69146;52.266;7.000;2023-05-07T17:12:03;20.10;96.40
47616;DHT22;69146;52.266;7.000;2023-05-07T17:14:48;19.80;96.50
47616;DHT22;69146;52.266;7.000;2023-05-07T17:17:33;19.70;96.70
47616;DHT22;69146;52.266;7.000;2023-05-07T17:20:17;19.70;97.20
47616;DHT22;69146;52.266;7.000;2023-05-07T17:23:04;19.70;97.40
47616;DHT22;69146;52.266;7.000;2023-05-07T17:25:51;19.70;97.20
47616;DHT22;69146;52.266;7.000;2023-05-07T17:28:36;19.60;97.30
47616;DHT22;69146;52.266;7.000;2023-05-07T17:31:23;19.50;97.50